createdAt,value
2016-12-17T00:00:50.976Z,97.96
2016-12-17T00:01:50.935Z,99.09
2016-12-17T00:02:50.890Z,98.43
2016-12-17T00:03:50.852Z,98.24
2016-12-17T00:04:50.805Z,98.71
2016-12-17T00:05:50.767Z,98.14
2016-12-17T00:06:50.721Z,98.14
2016-12-17T00:07:50.680Z,98.05
2016-12-17T00:08:50.640Z,98.24
2016-12-17T00:09:50.597Z,98.24
2016-12-17T00:10:50.552Z,98.33
2016-12-17T00:11:50.508Z,98.43
2016-12-17T00:12:50.467Z,98.62
2016-12-17T00:13:50.425Z,98.52
2016-12-17T00:14:50.381Z,98.24
2016-12-17T00:15:50.341Z,98.62
2016-12-17T00:16:49.993Z,98.71
2016-12-17T00:17:50.256Z,98.52
2016-12-17T00:18:50.212Z,98.43
2016-12-17T00:19:50.170Z,98.81
2016-12-17T00:20:50.126Z,98.33
2016-12-17T00:21:50.088Z,98.43
2016-12-17T00:22:50.041Z,98.9
2016-12-17T00:23:49.998Z,98.62
2016-12-17T00:24:49.958Z,99.19
2016-12-17T00:25:49.613Z,98.9
2016-12-17T00:26:49.870Z,99.19
2016-12-17T00:27:49.828Z,99
2016-12-17T00:28:49.790Z,99.09
2016-12-17T00:29:49.747Z,99.09
2016-12-17T00:30:49.702Z,99.19
2016-12-17T00:31:49.662Z,98.9
2016-12-17T00:32:49.616Z,99.19
2016-12-17T00:33:49.275Z,98.71
2016-12-17T00:34:49.537Z,98.71
2016-12-17T00:35:49.491Z,98.33
2016-12-17T00:36:49.446Z,98.62
2016-12-17T00:37:49.404Z,98.52
2016-12-17T00:38:49.361Z,98.43
2016-12-17T00:39:49.321Z,98.33
2016-12-17T00:40:48.974Z,98.62
2016-12-17T00:41:48.931Z,98.52
2016-12-17T00:42:49.194Z,98.81
2016-12-17T00:43:49.154Z,98.52
2016-12-17T00:44:49.110Z,98.71
2016-12-17T00:45:49.072Z,98.52
2016-12-17T00:46:49.027Z,98.81
2016-12-17T00:47:48.978Z,98.52
2016-12-17T00:48:48.938Z,98.81
2016-12-17T00:49:48.896Z,99.19
2016-12-17T00:50:48.851Z,98.81
2016-12-17T00:51:48.506Z,99.09
2016-12-17T00:52:48.464Z,99
2016-12-17T00:53:48.725Z,98.71
2016-12-17T00:54:48.682Z,98.9
2016-12-17T00:55:48.640Z,98.62
2016-12-17T00:56:48.294Z,99
2016-12-17T00:57:48.251Z,99
2016-12-17T00:58:48.211Z,99
2016-12-17T00:59:48.476Z,99
2016-12-17T01:00:48.428Z,98.62
2016-12-17T01:01:48.389Z,98.9
2016-12-17T01:02:48.351Z,98.81
2016-12-17T01:03:48.299Z,99
2016-12-17T01:04:48.260Z,98.9
2016-12-17T01:05:48.217Z,98.81
2016-12-17T01:06:48.185Z,99.09
2016-12-17T01:07:48.135Z,98.81
2016-12-17T01:08:48.091Z,99
2016-12-17T01:09:48.047Z,99.19
2016-12-17T01:10:47.701Z,99.19
2016-12-17T01:11:47.960Z,99.38
2016-12-17T01:12:47.921Z,99.47
2016-12-17T01:13:47.877Z,98.9
2016-12-17T01:14:47.833Z,99.09
2016-12-17T01:15:47.489Z,99.09
2016-12-17T01:16:47.748Z,99.09
2016-12-17T01:17:47.706Z,99.09
2016-12-17T01:18:47.661Z,99.09
2016-12-17T01:19:47.619Z,99
2016-12-17T01:20:47.577Z,98.9
2016-12-17T01:21:47.535Z,98.81
2016-12-17T01:22:47.189Z,98.81
2016-12-17T01:23:47.449Z,99.19
2016-12-17T01:24:47.109Z,99
2016-12-17T01:25:47.366Z,98.81
2016-12-17T01:26:47.324Z,98.81
2016-12-17T01:27:47.282Z,98.62
2016-12-17T01:28:47.236Z,98.9
2016-12-17T01:29:47.195Z,98.9
2016-12-17T01:30:47.153Z,99.19
2016-12-17T01:31:47.107Z,99.38
2016-12-17T01:32:47.067Z,99.19
2016-12-17T01:33:47.024Z,99.28
2016-12-17T01:34:46.980Z,99.28
2016-12-17T01:35:46.937Z,99.38
2016-12-17T01:36:46.900Z,98.52
2016-12-17T01:37:46.854Z,99.09
2016-12-17T01:38:46.813Z,99.28
2016-12-17T01:39:46.769Z,99.09
2016-12-17T01:40:46.725Z,99.19
2016-12-17T01:41:46.684Z,99.09
2016-12-17T01:42:46.641Z,99.28
2016-12-17T01:43:46.295Z,99.38
2016-12-17T01:44:46.554Z,99.19
2016-12-17T01:45:46.512Z,99.19
2016-12-17T01:46:46.167Z,99.19
2016-12-17T01:47:46.429Z,99.19
2016-12-17T01:48:46.386Z,99.19
2016-12-17T01:49:46.344Z,99.19
2016-12-17T01:50:45.997Z,99.09
2016-12-17T01:51:46.256Z,99.09
2016-12-17T01:52:45.914Z,99.66
2016-12-17T01:53:46.171Z,99.19
2016-12-17T01:54:46.130Z,99.19
2016-12-17T01:55:46.089Z,99.66
2016-12-17T01:56:45.746Z,99.28
2016-12-17T01:57:46.001Z,99.38
2016-12-17T01:58:45.656Z,98.9
2016-12-17T01:59:45.913Z,98.81
2016-12-17T02:00:45.875Z,99.09
2016-12-17T02:01:45.531Z,99
2016-12-17T02:02:45.790Z,98.62
2016-12-17T02:03:45.749Z,99.28
2016-12-17T02:04:45.708Z,99.38
2016-12-17T02:05:45.662Z,99.47
2016-12-17T02:06:45.624Z,99.66
2016-12-17T02:07:45.577Z,99.57
2016-12-17T02:08:45.533Z,99.38
2016-12-17T02:09:45.494Z,99.95
2016-12-17T02:10:45.450Z,99.66
2016-12-17T02:11:45.406Z,99.76
2016-12-17T02:12:45.065Z,99.95
2016-12-17T02:13:45.021Z,99.76
2016-12-17T02:14:45.284Z,99.85
2016-12-17T02:15:44.936Z,99.85
2016-12-17T02:16:45.195Z,99.85
2016-12-17T02:17:44.849Z,99.85
2016-12-17T02:18:45.108Z,99.76
2016-12-17T02:19:44.766Z,99.99
2016-12-17T02:20:45.026Z,99.85
2016-12-17T02:21:44.681Z,99.99
2016-12-17T02:22:44.939Z,99.76
2016-12-17T02:23:44.897Z,99.95
2016-12-17T02:24:44.859Z,99.66
2016-12-17T02:25:44.813Z,99.76
2016-12-17T02:26:44.769Z,99.66
2016-12-17T02:27:44.724Z,99.76
2016-12-17T02:28:44.681Z,99.76
2016-12-17T02:29:44.641Z,99.76
2016-12-17T02:30:44.597Z,99.76
2016-12-17T02:31:44.556Z,99.99
2016-12-17T02:32:44.513Z,99.95
2016-12-17T02:33:44.170Z,99.66
2016-12-17T02:34:44.435Z,99.57
2016-12-17T02:35:44.387Z,99.95
2016-12-17T02:36:44.043Z,99.95
2016-12-17T02:37:44.303Z,99.76
2016-12-17T02:38:44.264Z,99.76
2016-12-17T02:39:44.221Z,99.95
2016-12-17T02:40:44.176Z,99.76
2016-12-17T02:41:44.132Z,99.85
2016-12-17T02:42:44.088Z,99.76
2016-12-17T02:43:44.048Z,99.85
2016-12-17T02:44:43.702Z,99.99
2016-12-17T02:45:43.962Z,99.95
2016-12-17T02:46:43.917Z,99.95
2016-12-17T02:47:43.876Z,99.95
2016-12-17T02:48:43.833Z,99.99
2016-12-17T02:49:43.794Z,99.85
2016-12-17T02:50:43.751Z,99.76
2016-12-17T02:51:43.707Z,99.66
2016-12-17T02:52:43.665Z,99.66
2016-12-17T02:53:43.626Z,99.66
2016-12-17T02:54:43.277Z,99.57
2016-12-17T02:55:43.236Z,99.85
2016-12-17T02:56:43.494Z,99.57
2016-12-17T02:57:43.452Z,99.85
2016-12-17T02:58:43.410Z,99.66
2016-12-17T02:59:43.369Z,99.57
2016-12-17T03:00:43.326Z,99.85
2016-12-17T03:01:43.283Z,99.76
2016-12-17T03:02:42.937Z,99.57
2016-12-17T03:03:43.195Z,99.66
2016-12-17T03:04:43.152Z,99.57
2016-12-17T03:05:43.111Z,99.57
2016-12-17T03:06:43.067Z,99.76
2016-12-17T03:07:43.025Z,99.57
2016-12-17T03:08:42.985Z,99.57
2016-12-17T03:09:42.640Z,99.99
2016-12-17T03:10:42.902Z,99.76
2016-12-17T03:11:42.858Z,99.57
2016-12-17T03:12:42.510Z,99.76
2016-12-17T03:13:42.470Z,99.66
2016-12-17T03:14:42.728Z,99.57
2016-12-17T03:15:42.688Z,99.66
2016-12-17T03:16:42.649Z,99.85
2016-12-17T03:17:42.601Z,99.99
2016-12-17T03:18:42.563Z,99.28
2016-12-17T03:19:42.517Z,99.47
2016-12-17T03:20:42.477Z,99.19
2016-12-17T03:21:42.431Z,99.95
2016-12-17T03:22:42.088Z,99.85
2016-12-17T03:23:42.350Z,99.85
2016-12-17T03:24:42.304Z,99.95
2016-12-17T03:25:41.959Z,99.95
2016-12-17T03:26:42.217Z,99.85
2016-12-17T03:27:42.178Z,99.85
2016-12-17T03:28:42.137Z,99.85
2016-12-17T03:29:42.089Z,99.76
2016-12-17T03:30:41.748Z,99.99
2016-12-17T03:31:42.008Z,99.99
2016-12-17T03:32:41.963Z,99.99
2016-12-17T03:33:41.919Z,99.99
2016-12-17T03:34:41.576Z,99.95
2016-12-17T03:35:41.837Z,99.99
2016-12-17T03:36:41.801Z,99.95
2016-12-17T03:37:41.750Z,99.85
2016-12-17T03:38:41.712Z,99.85
2016-12-17T03:39:41.662Z,99.85
2016-12-17T03:40:41.623Z,99.99
2016-12-17T03:41:41.582Z,99.85
2016-12-17T03:42:41.242Z,99.85
2016-12-17T03:43:41.193Z,99.85
2016-12-17T03:44:41.453Z,99.85
2016-12-17T03:45:41.410Z,99.99
2016-12-17T03:46:41.373Z,99.95
2016-12-17T03:47:41.326Z,99.99
2016-12-17T03:48:41.287Z,99.99
2016-12-17T03:49:41.242Z,99.66
2016-12-17T03:50:40.895Z,99.99
2016-12-17T03:51:41.154Z,99.76
2016-12-17T03:52:41.115Z,99.85
2016-12-17T03:53:41.078Z,99.95
2016-12-17T03:54:41.030Z,99.95
2016-12-17T03:55:40.983Z,99.95
2016-12-17T03:56:40.944Z,99.99
2016-12-17T03:57:40.597Z,99.99
2016-12-17T03:58:40.859Z,99.85
2016-12-17T03:59:40.816Z,99.99
2016-12-17T04:00:40.774Z,99.99
2016-12-17T04:01:40.734Z,99.76
2016-12-17T04:02:40.687Z,99.76
2016-12-17T04:03:40.646Z,99.76
2016-12-17T04:04:40.604Z,99.76
2016-12-17T04:05:40.559Z,99.76
2016-12-17T04:06:40.215Z,99.76
2016-12-17T04:07:40.176Z,99.76
2016-12-17T04:08:40.130Z,99.66
2016-12-17T04:09:40.392Z,99.85
2016-12-17T04:10:40.346Z,99.85
2016-12-17T04:11:40.310Z,99.85
2016-12-17T04:12:40.263Z,99.85
2016-12-17T04:13:40.223Z,99.95
2016-12-17T04:14:40.181Z,99.85
2016-12-17T04:15:40.136Z,99.99
2016-12-17T04:16:40.095Z,99.95
2016-12-17T04:17:40.049Z,99.99
2016-12-17T04:18:40.007Z,99.99
2016-12-17T04:19:39.965Z,99.99
2016-12-17T04:20:39.958Z,99.95
2016-12-17T04:21:39.580Z,99.76
2016-12-17T04:22:39.535Z,99.85
2016-12-17T04:23:39.796Z,99.85
2016-12-17T04:24:39.752Z,99.95
2016-12-17T04:25:39.407Z,99.99
2016-12-17T04:26:39.366Z,99.99
2016-12-17T04:27:39.625Z,99.99
2016-12-17T04:28:39.584Z,99.99
2016-12-17T04:29:39.543Z,99.99
2016-12-17T04:30:39.495Z,99.85
2016-12-17T04:31:39.458Z,99.76
2016-12-17T04:32:39.414Z,99.66
2016-12-17T04:33:39.370Z,99.76
2016-12-17T04:34:39.330Z,99.95
2016-12-17T04:35:39.285Z,99.95
2016-12-17T04:36:38.939Z,99.99
2016-12-17T04:37:39.199Z,99.99
2016-12-17T04:38:39.161Z,99.99
2016-12-17T04:39:39.114Z,99.99
2016-12-17T04:40:39.072Z,99.99
2016-12-17T04:41:39.031Z,99.99
2016-12-17T04:42:38.987Z,99.99
2016-12-17T04:43:38.943Z,99.95
2016-12-17T04:44:38.904Z,99.85
2016-12-17T04:45:38.859Z,99.76
2016-12-17T04:46:38.815Z,99.99
2016-12-17T04:47:38.776Z,99.95
2016-12-17T04:48:38.431Z,99.99
2016-12-17T04:49:38.686Z,99.99
2016-12-17T04:50:38.649Z,99.99
2016-12-17T04:51:38.602Z,99.99
2016-12-17T04:52:38.257Z,99.99
2016-12-17T04:53:38.519Z,99.99
2016-12-17T04:54:38.474Z,99.99
2016-12-17T04:55:38.131Z,99.99
2016-12-17T04:56:38.391Z,99.99
2016-12-17T04:57:38.347Z,99.99
2016-12-17T04:58:38.305Z,99.99
2016-12-17T04:59:37.961Z,99.99
2016-12-17T05:00:38.220Z,99.99
2016-12-17T05:01:38.178Z,99.99
2016-12-17T05:02:38.136Z,99.99
2016-12-17T05:03:38.092Z,99.99
2016-12-17T05:04:38.052Z,99.99
2016-12-17T05:05:38.009Z,99.99
2016-12-17T05:06:37.967Z,99.99
2016-12-17T05:07:37.924Z,99.99
2016-12-17T05:08:37.886Z,99.99
2016-12-17T05:09:37.836Z,99.99
2016-12-17T05:10:37.795Z,99.99
2016-12-17T05:11:37.752Z,99.99
2016-12-17T05:12:37.710Z,99.99
2016-12-17T05:13:37.367Z,99.99
2016-12-17T05:14:37.324Z,99.99
2016-12-17T05:15:37.282Z,99.99
2016-12-17T05:16:37.542Z,99.99
2016-12-17T05:17:37.498Z,99.99
2016-12-17T05:18:37.453Z,99.99
2016-12-17T05:19:37.412Z,99.99
2016-12-17T05:20:37.369Z,99.99
2016-12-17T05:21:37.327Z,99.99
2016-12-17T05:22:37.283Z,99.99
2016-12-17T05:23:37.246Z,99.99
2016-12-17T05:24:37.200Z,99.99
2016-12-17T05:25:37.157Z,99.99
2016-12-17T05:26:37.115Z,99.99
2016-12-17T05:27:37.074Z,99.99
2016-12-17T05:28:36.726Z,99.99
2016-12-17T05:29:36.983Z,99.99
2016-12-17T05:30:36.639Z,99.99
2016-12-17T05:31:36.595Z,99.99
2016-12-17T05:32:36.557Z,99.99
2016-12-17T05:33:36.814Z,99.99
2016-12-17T05:34:36.770Z,99.99
2016-12-17T05:35:36.727Z,99.99
2016-12-17T05:36:36.685Z,99.99
2016-12-17T05:37:36.642Z,99.99
2016-12-17T05:38:36.602Z,99.99
2016-12-17T05:39:36.561Z,99.99
2016-12-17T05:40:36.211Z,99.99
2016-12-17T05:41:36.173Z,99.99
2016-12-17T05:42:36.431Z,99.99
2016-12-17T05:43:36.387Z,99.99
2016-12-17T05:44:36.044Z,99.99
2016-12-17T05:45:36.306Z,99.99
2016-12-17T05:46:36.260Z,99.99
2016-12-17T05:47:36.219Z,99.99
2016-12-17T05:48:36.176Z,99.99
2016-12-17T05:49:35.830Z,99.99
2016-12-17T05:50:35.786Z,99.99
2016-12-17T05:51:36.050Z,99.99
2016-12-17T05:52:36.002Z,99.99
2016-12-17T05:53:35.960Z,99.99
2016-12-17T05:54:35.919Z,99.99
2016-12-17T05:55:35.873Z,99.99
2016-12-17T05:56:35.833Z,99.99
2016-12-17T05:57:35.788Z,99.99
2016-12-17T05:58:35.446Z,99.99
2016-12-17T05:59:35.703Z,99.99
2016-12-17T06:00:35.659Z,99.99
2016-12-17T06:01:35.623Z,99.99
2016-12-17T06:02:35.574Z,99.99
2016-12-17T06:03:35.533Z,99.99
2016-12-17T06:04:35.190Z,99.99
2016-12-17T06:05:35.449Z,99.99
2016-12-17T06:06:35.405Z,99.99
2016-12-17T06:07:35.361Z,99.99
2016-12-17T06:08:35.322Z,99.99
2016-12-17T06:09:35.275Z,99.99
2016-12-17T06:10:35.234Z,99.99
2016-12-17T06:11:35.190Z,99.99
2016-12-17T06:12:34.844Z,99.99
2016-12-17T06:13:35.136Z,99.99
2016-12-17T06:14:35.062Z,99.99
2016-12-17T06:15:35.022Z,99.99
2016-12-17T06:16:34.975Z,99.99
2016-12-17T06:17:34.934Z,99.99
2016-12-17T06:18:34.893Z,99.99
2016-12-17T06:19:34.851Z,99.99
2016-12-17T06:20:34.805Z,99.99
2016-12-17T06:21:34.459Z,99.99
2016-12-17T06:22:34.724Z,99.99
2016-12-17T06:23:34.678Z,99.99
2016-12-17T06:24:34.634Z,99.99
2016-12-17T06:25:34.594Z,99.99
2016-12-17T06:26:34.550Z,99.99
2016-12-17T06:27:34.507Z,99.99
2016-12-17T06:28:34.465Z,99.99
2016-12-17T06:29:34.419Z,99.99
2016-12-17T06:30:34.376Z,99.99
2016-12-17T06:31:34.335Z,99.99
2016-12-17T06:32:34.292Z,99.99
2016-12-17T06:33:34.279Z,99.99
2016-12-17T06:34:34.208Z,99.99
2016-12-17T06:35:34.168Z,99.99
2016-12-17T06:36:34.123Z,99.99
2016-12-17T06:37:34.079Z,99.99
2016-12-17T06:38:34.037Z,99.99
2016-12-17T06:39:33.693Z,99.99
2016-12-17T06:40:33.951Z,99.99
2016-12-17T06:41:33.911Z,99.99
2016-12-17T06:42:33.866Z,99.99
2016-12-17T06:43:33.824Z,99.99
2016-12-17T06:44:33.781Z,99.99
2016-12-17T06:45:33.740Z,99.99
2016-12-17T06:46:33.695Z,99.99
2016-12-17T06:47:33.657Z,99.99
2016-12-17T06:48:33.612Z,99.99
2016-12-17T06:49:33.565Z,99.99
2016-12-17T06:50:33.523Z,99.99
2016-12-17T06:51:33.483Z,99.99
2016-12-17T06:52:33.449Z,99.99
2016-12-17T06:53:33.397Z,99.99
2016-12-17T06:54:33.355Z,99.99
2016-12-17T06:55:33.009Z,99.99
2016-12-17T06:56:32.973Z,99.99
2016-12-17T06:57:33.225Z,99.99
2016-12-17T06:58:33.182Z,99.99
2016-12-17T06:59:33.144Z,99.99
2016-12-17T07:00:33.098Z,99.99
2016-12-17T07:01:33.055Z,99.99
2016-12-17T07:02:32.711Z,99.99
2016-12-17T07:03:32.976Z,99.99
2016-12-17T07:04:32.625Z,99.99
2016-12-17T07:05:32.585Z,99.99
2016-12-17T07:06:32.845Z,99.99
2016-12-17T07:07:32.497Z,99.99
2016-12-17T07:08:32.755Z,99.99
2016-12-17T07:09:32.713Z,99.99
2016-12-17T07:10:32.369Z,99.99
2016-12-17T07:11:32.630Z,99.99
2016-12-17T07:12:32.585Z,99.99
2016-12-17T07:13:32.544Z,99.99
2016-12-17T07:14:32.502Z,99.99
2016-12-17T07:15:32.459Z,99.99
2016-12-17T07:16:32.419Z,99.99
2016-12-17T07:17:32.373Z,99.99
2016-12-17T07:18:32.031Z,99.99
2016-12-17T07:19:32.285Z,99.99
2016-12-17T07:20:32.246Z,99.99
2016-12-17T07:21:32.214Z,99.99
2016-12-17T07:22:32.160Z,99.99
2016-12-17T07:23:32.118Z,99.99
2016-12-17T07:24:32.074Z,99.99
2016-12-17T07:25:32.031Z,99.99
2016-12-17T07:26:31.990Z,99.99
2016-12-17T07:27:31.944Z,99.99
2016-12-17T07:28:31.603Z,99.99
2016-12-17T07:29:31.861Z,99.99
2016-12-17T07:30:31.818Z,99.99
2016-12-17T07:31:31.473Z,99.99
2016-12-17T07:32:31.736Z,99.99
2016-12-17T07:33:31.389Z,99.99
2016-12-17T07:34:31.648Z,99.99
2016-12-17T07:35:31.608Z,99.99
2016-12-17T07:36:31.264Z,99.99
2016-12-17T07:37:31.220Z,99.99
2016-12-17T07:38:31.481Z,99.99
2016-12-17T07:39:31.434Z,99.99
2016-12-17T07:40:31.393Z,99.99
2016-12-17T07:41:31.348Z,99.99
2016-12-17T07:42:31.311Z,99.99
2016-12-17T07:43:31.266Z,99.99
2016-12-17T07:44:31.220Z,99.99
2016-12-17T07:45:30.881Z,99.99
2016-12-17T07:46:30.839Z,99.99
2016-12-17T07:47:30.794Z,99.99
2016-12-17T07:48:31.053Z,99.99
2016-12-17T07:49:31.010Z,99.99
2016-12-17T07:50:30.665Z,99.99
2016-12-17T07:51:30.927Z,99.99
2016-12-17T07:52:30.883Z,99.99
2016-12-17T07:53:30.842Z,99.99
2016-12-17T07:54:30.798Z,99.99
2016-12-17T07:55:30.753Z,99.99
2016-12-17T07:56:30.710Z,99.99
2016-12-17T07:57:30.671Z,99.99
2016-12-17T07:58:30.324Z,99.99
2016-12-17T07:59:30.582Z,99.99
2016-12-17T08:00:30.545Z,99.99
2016-12-17T08:01:30.196Z,99.99
2016-12-17T08:02:30.456Z,99.99
2016-12-17T08:03:30.418Z,99.99
2016-12-17T08:04:30.370Z,99.99
2016-12-17T08:05:30.330Z,99.99
2016-12-17T08:06:30.292Z,99.99
2016-12-17T08:07:30.242Z,99.99
2016-12-17T08:08:29.898Z,99.99
2016-12-17T08:09:30.160Z,99.99
2016-12-17T08:10:30.113Z,99.99
2016-12-17T08:11:30.075Z,99.99
2016-12-17T08:12:30.030Z,99.99
2016-12-17T08:13:29.687Z,99.99
2016-12-17T08:14:29.946Z,99.99
2016-12-17T08:15:29.902Z,99.99
2016-12-17T08:16:29.861Z,99.99
2016-12-17T08:17:29.516Z,99.99
2016-12-17T08:18:29.777Z,99.99
2016-12-17T08:19:29.731Z,99.99
2016-12-17T08:20:29.692Z,99.99
2016-12-17T08:21:29.346Z,99.99
2016-12-17T08:22:29.305Z,99.85
2016-12-17T08:23:29.563Z,99.85
2016-12-17T08:24:29.523Z,99.95
2016-12-17T08:25:29.177Z,99.99
2016-12-17T08:26:29.441Z,99.99
2016-12-17T08:27:29.399Z,99.76
2016-12-17T08:28:29.353Z,99.57
2016-12-17T08:29:29.309Z,99.66
2016-12-17T08:30:29.269Z,99.47
2016-12-17T08:31:29.224Z,99.19
2016-12-17T08:32:29.185Z,99.09
2016-12-17T08:33:29.141Z,99
2016-12-17T08:34:28.798Z,98.81
2016-12-17T08:35:29.059Z,99
2016-12-17T08:36:29.019Z,98.81
2016-12-17T08:37:28.969Z,98.9
2016-12-17T08:38:28.926Z,99.38
2016-12-17T08:39:28.584Z,99.19
2016-12-17T08:40:28.843Z,99.38
2016-12-17T08:41:28.799Z,99.09
2016-12-17T08:42:28.759Z,99.95
2016-12-17T08:43:28.718Z,99.95
2016-12-17T08:44:28.671Z,99.66
2016-12-17T08:45:28.634Z,99.47
2016-12-17T08:46:28.588Z,99.57
2016-12-17T08:47:28.545Z,99.85
2016-12-17T08:48:28.203Z,99.76
2016-12-17T08:49:28.460Z,99.95
2016-12-17T08:50:28.417Z,99.95
2016-12-17T08:51:28.078Z,99.76
2016-12-17T08:52:28.334Z,99.38
2016-12-17T08:53:28.289Z,99
2016-12-17T08:54:28.248Z,99.19
2016-12-17T08:55:28.209Z,99.19
2016-12-17T08:56:28.168Z,99.95
2016-12-17T08:57:28.122Z,99.9
2016-12-17T08:58:28.081Z,99.9
2016-12-17T08:59:28.043Z,99.24
2016-12-17T09:00:27.993Z,99.62
2016-12-17T09:01:27.950Z,99.24
2016-12-17T09:02:27.910Z,99.05
2016-12-17T09:03:27.867Z,99.15
2016-12-17T09:04:27.822Z,98.86
2016-12-17T09:05:27.789Z,98.77
2016-12-17T09:06:27.736Z,98.48
2016-12-17T09:07:27.698Z,98.48
2016-12-17T09:08:27.652Z,98.29
2016-12-17T09:09:27.310Z,99.05
2016-12-17T09:10:27.568Z,98.77
2016-12-17T09:11:27.526Z,98.58
2016-12-17T09:12:27.190Z,98.48
2016-12-17T09:13:27.449Z,98.48
2016-12-17T09:14:27.430Z,98.58
2016-12-17T09:15:27.359Z,98.48
2016-12-17T09:16:27.316Z,97.82
2016-12-17T09:17:27.274Z,97.63
2016-12-17T09:18:27.231Z,97.72
2016-12-17T09:19:27.190Z,98.29
2016-12-17T09:20:27.148Z,98.29
2016-12-17T09:21:27.105Z,98.29
2016-12-17T09:22:27.063Z,97.63
2016-12-17T09:23:27.020Z,97.63
2016-12-17T09:24:26.978Z,98.29
2016-12-17T09:25:26.935Z,98.29
2016-12-17T09:26:26.891Z,98.2
2016-12-17T09:27:26.551Z,98.01
2016-12-17T09:28:26.807Z,97.49
2016-12-17T09:29:26.766Z,98.2
2016-12-17T09:30:26.724Z,98.33
2016-12-17T09:31:26.683Z,98.52
2016-12-17T09:32:26.638Z,97.96
2016-12-17T09:33:26.626Z,98.52
2016-12-17T09:34:26.555Z,98.01
2016-12-17T09:35:26.213Z,98.01
2016-12-17T09:36:26.169Z,98.62
2016-12-17T09:37:26.469Z,98.67
2016-12-17T09:38:26.083Z,98.2
2016-12-17T09:39:26.345Z,98.01
2016-12-17T09:40:26.306Z,98.96
2016-12-17T09:41:25.955Z,98.39
2016-12-17T09:42:26.226Z,98.1
2016-12-17T09:43:26.176Z,98.1
2016-12-17T09:44:26.132Z,98.39
2016-12-17T09:45:26.089Z,98.58
2016-12-17T09:46:26.046Z,98.67
2016-12-17T09:47:25.702Z,98.39
2016-12-17T09:48:25.965Z,98.29
2016-12-17T09:49:25.924Z,97.82
2016-12-17T09:50:25.879Z,97.34
2016-12-17T09:51:25.837Z,97.39
2016-12-17T09:52:25.791Z,97.58
2016-12-17T09:53:25.751Z,97.77
2016-12-17T09:54:25.406Z,98.33
2016-12-17T09:55:25.370Z,98.33
2016-12-17T09:56:25.325Z,98.43
2016-12-17T09:57:25.584Z,98.24
2016-12-17T09:58:25.541Z,98.52
2016-12-17T09:59:25.499Z,98.52
2016-12-17T10:00:25.181Z,98.43
2016-12-17T10:01:25.411Z,98.24
2016-12-17T10:02:25.067Z,98.24
2016-12-17T10:03:25.025Z,98.14
2016-12-17T10:04:25.285Z,97.96
2016-12-17T10:05:25.245Z,98.29
2016-12-17T10:06:25.201Z,98.1
2016-12-17T10:07:24.856Z,98.39
2016-12-17T10:08:24.814Z,98.58
2016-12-17T10:09:25.075Z,98.01
2016-12-17T10:10:25.030Z,98.39
2016-12-17T10:11:24.990Z,97.82
2016-12-17T10:12:24.952Z,97.63
2016-12-17T10:13:24.910Z,97.44
2016-12-17T10:14:24.864Z,97.06
2016-12-17T10:15:24.826Z,96.88
2016-12-17T10:16:24.777Z,97.06
2016-12-17T10:17:24.737Z,96.59
2016-12-17T10:18:24.394Z,96.12
2016-12-17T10:19:24.662Z,96.21
2016-12-17T10:20:24.609Z,95.83
2016-12-17T10:21:24.266Z,95.83
2016-12-17T10:22:24.523Z,95.83
2016-12-17T10:23:24.484Z,95.93
2016-12-17T10:24:24.161Z,95.93
2016-12-17T10:25:24.406Z,95.93
2016-12-17T10:26:24.357Z,96.31
2016-12-17T10:27:24.013Z,96.02
2016-12-17T10:28:24.274Z,96.21
2016-12-17T10:29:24.230Z,96.31
2016-12-17T10:30:24.206Z,96.69
2016-12-17T10:31:24.146Z,97.16
2016-12-17T10:32:23.802Z,96.78
2016-12-17T10:33:24.062Z,96.59
2016-12-17T10:34:24.019Z,96.69
2016-12-17T10:35:23.676Z,96.4
2016-12-17T10:36:23.939Z,96.59
2016-12-17T10:37:23.894Z,96.59
2016-12-17T10:38:23.852Z,96.59
2016-12-17T10:39:23.507Z,96.21
2016-12-17T10:40:23.768Z,95.83
2016-12-17T10:41:23.423Z,96.07
2016-12-17T10:42:23.686Z,96.26
2016-12-17T10:43:23.637Z,95.31
2016-12-17T10:44:23.298Z,95.31
2016-12-17T10:45:23.560Z,95.21
2016-12-17T10:46:23.518Z,95.03
2016-12-17T10:47:23.171Z,95.21
2016-12-17T10:48:23.437Z,95.31
2016-12-17T10:49:23.089Z,94.84
2016-12-17T10:50:23.377Z,94.56
2016-12-17T10:51:23.311Z,94.93
2016-12-17T10:52:22.967Z,94.37
2016-12-17T10:53:23.225Z,94.32
2016-12-17T10:54:23.179Z,94.13
2016-12-17T10:55:23.140Z,94.7
2016-12-17T10:56:23.100Z,94.98
2016-12-17T10:57:22.755Z,94.89
2016-12-17T10:58:23.013Z,94.6
2016-12-17T10:59:22.680Z,94.7
2016-12-17T11:00:22.932Z,94.89
2016-12-17T11:01:22.888Z,95.17
2016-12-17T11:02:22.846Z,94.79
2016-12-17T11:03:22.804Z,94.51
2016-12-17T11:04:22.465Z,94.7
2016-12-17T11:05:22.720Z,94.7
2016-12-17T11:06:22.679Z,94.89
2016-12-17T11:07:22.638Z,94.89
2016-12-17T11:08:22.295Z,95.36
2016-12-17T11:09:22.250Z,95.26
2016-12-17T11:10:22.210Z,94.98
2016-12-17T11:11:22.474Z,95.07
2016-12-17T11:12:22.430Z,95.64
2016-12-17T11:13:22.085Z,96.21
2016-12-17T11:14:22.346Z,95.93
2016-12-17T11:15:22.304Z,96.02
2016-12-17T11:16:22.261Z,96.02
2016-12-17T11:17:22.219Z,95.74
2016-12-17T11:18:22.179Z,96.12
2016-12-17T11:19:22.141Z,96.02
2016-12-17T11:20:21.794Z,96.12
2016-12-17T11:21:22.055Z,96.12
2016-12-17T11:22:21.707Z,96.21
2016-12-17T11:23:21.966Z,95.07
2016-12-17T11:24:21.624Z,95.17
2016-12-17T11:25:21.885Z,95.26
2016-12-17T11:26:21.845Z,95.26
2016-12-17T11:27:21.810Z,94.7
2016-12-17T11:28:21.758Z,94.6
2016-12-17T11:29:21.416Z,94.89
2016-12-17T11:30:21.674Z,94.6
2016-12-17T11:31:21.631Z,94.98
2016-12-17T11:32:21.291Z,93.94
2016-12-17T11:33:21.550Z,94.32
2016-12-17T11:34:21.508Z,94.13
2016-12-17T11:35:21.465Z,94.42
2016-12-17T11:36:21.425Z,94.42
2016-12-17T11:37:21.382Z,94.23
2016-12-17T11:38:21.338Z,94.42
2016-12-17T11:39:20.998Z,94.89
2016-12-17T11:40:20.957Z,94.6
2016-12-17T11:41:21.217Z,95.07
2016-12-17T11:42:21.173Z,94.7
2016-12-17T11:43:21.131Z,94.6
2016-12-17T11:44:21.093Z,94.37
2016-12-17T11:45:21.045Z,94.08
2016-12-17T11:46:21.009Z,93.61
2016-12-17T11:47:20.962Z,93.61
2016-12-17T11:48:20.922Z,93.23
2016-12-17T11:49:20.884Z,92.38
2016-12-17T11:50:20.840Z,92.57
2016-12-17T11:51:20.794Z,92.38
2016-12-17T11:52:20.754Z,92.19
2016-12-17T11:53:20.718Z,91.72
2016-12-17T11:54:20.671Z,91.81
2016-12-17T11:55:20.632Z,91.81
2016-12-17T11:56:20.587Z,91.34
2016-12-17T11:57:20.554Z,91.05
2016-12-17T11:58:20.200Z,91.43
2016-12-17T11:59:20.462Z,91.34
2016-12-17T12:00:20.420Z,91
2016-12-17T12:01:20.378Z,91.1
2016-12-17T12:02:20.037Z,91.1
2016-12-17T12:03:20.297Z,91.67
2016-12-17T12:04:19.953Z,91.67
2016-12-17T12:05:19.915Z,91.29
2016-12-17T12:06:19.874Z,91.38
2016-12-17T12:07:20.132Z,91.19
2016-12-17T12:08:19.789Z,91.67
2016-12-17T12:09:20.049Z,91.57
2016-12-17T12:10:20.009Z,91.29
2016-12-17T12:11:19.966Z,91.1
2016-12-17T12:12:19.930Z,91.29
2016-12-17T12:13:19.885Z,91
2016-12-17T12:14:19.541Z,91.29
2016-12-17T12:15:19.801Z,90.63
2016-12-17T12:16:19.759Z,90.34
2016-12-17T12:17:19.723Z,90.15
2016-12-17T12:18:19.674Z,90.44
2016-12-17T12:19:19.639Z,90.06
2016-12-17T12:20:19.593Z,89.96
2016-12-17T12:21:19.554Z,89.49
2016-12-17T12:22:19.513Z,90.15
2016-12-17T12:23:19.170Z,90.15
2016-12-17T12:24:19.434Z,89.87
2016-12-17T12:25:19.394Z,90.06
2016-12-17T12:26:19.060Z,89.96
2016-12-17T12:27:19.307Z,89.58
2016-12-17T12:28:19.269Z,88.92
2016-12-17T12:29:19.226Z,88.82
2016-12-17T12:30:19.183Z,88.64
2016-12-17T12:31:18.841Z,88.45
2016-12-17T12:32:18.800Z,88.11
2016-12-17T12:33:19.061Z,88.11
2016-12-17T12:34:18.716Z,88.17
2016-12-17T12:35:18.979Z,87.92
2016-12-17T12:36:18.948Z,88.02
2016-12-17T12:37:18.896Z,87.16
2016-12-17T12:38:18.856Z,87.64
2016-12-17T12:39:18.514Z,87.26
2016-12-17T12:40:18.776Z,87.73
2016-12-17T12:41:18.734Z,87.83
2016-12-17T12:42:18.693Z,87.35
2016-12-17T12:43:18.352Z,86.69
2016-12-17T12:44:18.308Z,86.69
2016-12-17T12:45:18.569Z,87.16
2016-12-17T12:46:18.529Z,87.02
2016-12-17T12:47:18.488Z,87.16
2016-12-17T12:48:18.145Z,87.31
2016-12-17T12:49:18.410Z,87.12
2016-12-17T12:50:18.366Z,87.21
2016-12-17T12:51:18.323Z,87.07
2016-12-17T12:52:18.282Z,87.12
2016-12-17T12:53:18.246Z,87.21
2016-12-17T12:54:18.212Z,87.02
2016-12-17T12:55:18.164Z,87.5